Airfield :
LOGIN :

Register | Disclaimer

   EN    FR    IT 

 










Legend :    VFR   Marginal VFR   IFR   Intensive IFR   Very Intensive IFR
Visi :
Ceiling :
>= 8 km
>= 3000ft
5 to 8 km
1000 to 3000 ft
1500m to 5 km
500 to 1000 ft
800 to 1500m
200 to 500 ft
< 800m
< 200 ft
Symbols :   Thunderstorms  Fog  Heavy snow  Heavy precipitations  Wind > 20 kt
SIGMETs :     Misc.  Thunderstorms  Icing  Turbulence  Mountain Waves  Volcanic Ashes






- Airport Elevation : 405 ft
- IATA code : ODH


EGVO - RAF Odiham

CURRENT METAR :
  • 100350Z AUTO 17009KT 9999 FEW230/// 02/01 Q1023

EXPIRED METARs :
  • 100250Z AUTO 19006KT 9999 NCD 02/00 Q1023
  • 100150Z 21006KT CAVOK 02/M00 Q1023 NOSIG RMK BLU BLU
  • 100120Z 21006KT CAVOK 02/00 Q1024 NOSIG RMK BLU BLU

TAF TAF EGVO
Valid from the 10 at 00:00 until the 10 at 12:00 UTC


092250Z 1000/1012 25008KT CAVOK
BECMG 1004/1006 19015KT
TEMPO 1006/1009 19018G28KT BKN022
BECMG 1009/1011 20022G35KT -RA BKN015
TEMPO 1009/1012 7000 RA BKN012



MET'MAP, your aeronautical weather chart ! - Copyright ORBIFLY December 2007 - Disclaimer

ORBIFLY MET'MAP TEAM :

Programming & Development : Alexandra Zaïnal
Concept & original design : Baudouin d'Aumeries
Assistance for programming : Marc-Olivier Méhu
Technical & hardware support : Manuel Goepfert

Contact : metmap@orbifly.com




SOURCES & CREDITS :

   NOAA